Time;durP1;ratioP1;P1;durP2;ratioP2;P2;SDS_P1;SDS_P2;PMS_P1;PMS_P2;Temp;Humidity;BMP_temperature;BMP_pressure;BME280_temperature;BME280_humidity;BME280_pressure;Samples;Min_cycle;Max_cycle;Signal;HPM_P1;HPM_P2
2022/04/17 00:00:05;;;;;;;7.13;6.30;;;;;;;;;;4974390;28;20523;-51
2022/04/17 00:02:31;;;;;;;8.83;6.70;;;;;;;;;;4974178;28;20819;-50
2022/04/17 00:04:57;;;;;;;10.85;6.95;;;;;;;;;;4974452;28;20902;-50
2022/04/17 00:07:23;;;;;;;9.10;7.10;;;;;;;;;;4974439;28;20165;-50
2022/04/17 00:09:49;;;;;;;8.43;6.50;;;;;;;;;;4974334;28;20401;-49
2022/04/17 00:12:15;;;;;;;8.57;6.20;;;;;;;;;;4997019;23;20488;-48
2022/04/17 00:14:43;;;;;;;8.30;6.73;;;;;;;;;;4974298;28;20748;-48
2022/04/17 00:17:11;;;;;;;6.05;5.50;;;;;;;;;;4974234;28;20751;-49
2022/04/17 00:19:37;;;;;;;8.38;6.20;;;;;;;;;;4973994;28;20567;-49
2022/04/17 00:22:03;;;;;;;8.73;6.30;;;;;;;;;;4973845;28;20196;-49
2022/04/17 00:24:29;;;;;;;12.10;7.40;;;;;;;;;;4974058;28;20194;-48
2022/04/17 00:26:57;;;;;;;9.30;6.43;;;;;;;;;;4972826;28;20661;-49
2022/04/17 00:29:23;;;;;;;8.20;6.57;;;;;;;;;;4973969;28;20468;-48
2022/04/17 00:31:49;;;;;;;8.07;6.37;;;;;;;;;;4973611;28;20423;-48
2022/04/17 00:34:15;;;;;;;7.80;6.80;;;;;;;;;;4973792;28;20420;-49
2022/04/17 00:36:41;;;;;;;7.10;6.40;;;;;;;;;;4973881;28;20446;-49
2022/04/17 00:39:07;;;;;;;8.23;5.87;;;;;;;;;;4973779;28;20538;-49
2022/04/17 00:41:33;;;;;;;8.17;6.37;;;;;;;;;;4973451;28;20421;-48
2022/04/17 00:43:59;;;;;;;9.87;6.50;;;;;;;;;;4973750;28;20446;-49
2022/04/17 00:46:25;;;;;;;7.03;6.33;;;;;;;;;;4973656;28;20412;-49
2022/04/17 00:48:51;;;;;;;12.40;6.50;;;;;;;;;;4973520;28;20463;-49
2022/04/17 00:51:17;;;;;;;7.17;6.40;;;;;;;;;;4973423;28;20485;-48
2022/04/17 00:53:45;;;;;;;9.53;6.70;;;;;;;;;;4973459;28;20441;-48
2022/04/17 00:56:11;;;;;;;8.67;6.60;;;;;;;;;;4973404;28;20413;-49
2022/04/17 00:58:38;;;;;;;7.53;5.80;;;;;;;;;;4973443;28;20456;-48
2022/04/17 01:01:04;;;;;;;8.40;6.40;;;;;;;;;;4972925;28;20410;-48
2022/04/17 01:03:30;;;;;;;12.10;7.73;;;;;;;;;;4972660;28;20405;-48
2022/04/17 01:05:56;;;;;;;10.30;6.77;;;;;;;;;;4972861;28;20490;-48
2022/04/17 01:08:22;;;;;;;11.80;6.80;;;;;;;;;;4973407;28;20405;-48
2022/04/17 01:10:48;;;;;;;9.40;6.07;;;;;;;;;;4973275;28;20397;-49
2022/04/17 01:13:14;;;;;;;9.37;6.40;;;;;;;;;;4972905;28;20441;-49
2022/04/17 01:15:40;;;;;;;8.77;6.57;;;;;;;;;;4973318;28;20988;-48
2022/04/17 01:18:07;;;;;;;7.40;6.23;;;;;;;;;;4973137;28;20409;-48
2022/04/17 01:20:33;;;;;;;7.80;6.20;;;;;;;;;;4973199;28;20500;-49
2022/04/17 01:28:28;;;;;;;8.80;6.20;;;;;;;;;;4973336;28;20435;-49
2022/04/17 01:30:54;;;;;;;10.07;6.90;;;;;;;;;;4973073;28;20399;-48
2022/04/17 01:33:21;;;;;;;10.47;5.83;;;;;;;;;;4972706;28;20504;-49
2022/04/17 01:35:47;;;;;;;6.17;5.57;;;;;;;;;;4973071;28;20955;-48
2022/04/17 01:38:13;;;;;;;6.50;5.37;;;;;;;;;;4973076;28;20405;-49
2022/04/17 01:40:39;;;;;;;8.53;6.20;;;;;;;;;;4972920;28;20905;-48
2022/04/17 01:43:11;;;;;;;6.40;5.80;;;;;;;;;;4972571;28;20460;-48
2022/04/17 01:45:37;;;;;;;6.70;5.40;;;;;;;;;;4973171;28;20911;-49
2022/04/17 01:48:04;;;;;;;7.10;6.40;;;;;;;;;;4973074;28;20534;-49
2022/04/17 01:50:30;;;;;;;9.43;6.10;;;;;;;;;;4972959;28;20447;-49
2022/04/17 01:53:00;;;;;;;6.00;5.40;;;;;;;;;;4972592;28;20185;-48
2022/04/17 01:55:27;;;;;;;7.73;6.00;;;;;;;;;;4972886;28;20405;-49
2022/04/17 01:57:53;;;;;;;8.60;5.80;;;;;;;;;;4972858;28;20476;-48
2022/04/17 02:00:19;;;;;;;5.40;4.80;;;;;;;;;;4972777;28;20457;-48
2022/04/17 02:02:45;;;;;;;6.17;5.57;;;;;;;;;;4972680;28;20482;-48
2022/04/17 02:05:12;;;;;;;6.00;4.90;;;;;;;;;;4972913;28;20437;-49
2022/04/17 02:07:38;;;;;;;5.77;5.00;;;;;;;;;;4972807;28;20500;-49
2022/04/17 02:10:07;;;;;;;6.17;5.33;;;;;;;;;;4976618;28;20399;-49
2022/04/17 02:12:34;;;;;;;6.77;5.97;;;;;;;;;;4976082;28;21026;-48
2022/04/17 02:15:00;;;;;;;6.80;5.43;;;;;;;;;;4976544;28;20845;-48
2022/04/17 02:17:26;;;;;;;6.53;5.40;;;;;;;;;;4976381;28;20775;-48
2022/04/17 02:19:52;;;;;;;5.30;4.80;;;;;;;;;;4976366;28;20902;-48
2022/04/17 02:22:18;;;;;;;6.53;5.17;;;;;;;;;;4975960;28;20213;-48
2022/04/17 02:24:44;;;;;;;8.93;5.60;;;;;;;;;;4976205;28;20405;-48
2022/04/17 02:27:10;;;;;;;8.67;4.90;;;;;;;;;;4976276;28;20573;-49
2022/04/17 02:29:36;;;;;;;8.30;5.07;;;;;;;;;;4976114;28;20822;-49
2022/04/17 02:32:02;;;;;;;5.28;4.78;;;;;;;;;;4975810;28;20945;-48
2022/04/17 02:34:28;;;;;;;5.43;4.40;;;;;;;;;;4976161;28;20187;-49
2022/04/17 02:36:54;;;;;;;5.13;4.60;;;;;;;;;;4976066;28;20406;-49
2022/04/17 02:39:20;;;;;;;5.60;5.10;;;;;;;;;;4976362;28;20813;-49
2022/04/17 02:41:46;;;;;;;5.33;4.83;;;;;;;;;;4975686;28;20776;-49
2022/04/17 02:44:12;;;;;;;6.03;5.20;;;;;;;;;;4975968;28;20397;-49
2022/04/17 02:49:23;;;;;;;5.85;4.70;;;;;;;;;;4975929;28;20549;-48
2022/04/17 02:51:49;;;;;;;5.00;4.50;;;;;;;;;;4975376;28;20252;-48
2022/04/17 02:54:15;;;;;;;6.50;4.80;;;;;;;;;;4975794;28;20405;-48
2022/04/17 02:56:41;;;;;;;5.73;4.30;;;;;;;;;;4975702;28;20415;-48
2022/04/17 02:59:07;;;;;;;5.27;4.17;;;;;;;;;;4975558;28;20515;-48
2022/04/17 03:07:01;;;;;;;5.43;4.80;;;;;;;;;;4975631;28;20181;-48
2022/04/17 03:09:28;;;;;;;5.93;4.07;;;;;;;;;;4975570;28;20398;-48
2022/04/17 03:11:54;;;;;;;5.63;4.40;;;;;;;;;;4975012;28;20446;-48
2022/04/17 03:14:20;;;;;;;8.50;4.70;;;;;;;;;;4975367;28;20488;-49
2022/04/17 03:16:46;;;;;;;7.35;4.90;;;;;;;;;;4975285;28;20456;-48
2022/04/17 03:19:12;;;;;;;8.10;4.70;;;;;;;;;;4974896;28;20217;-49
2022/04/17 03:21:37;;;;;;;6.43;4.43;;;;;;;;;;4974396;28;20421;-48
2022/04/17 03:24:04;;;;;;;7.13;4.97;;;;;;;;;;4975224;28;20518;-48
2022/04/17 03:26:29;;;;;;;5.47;4.15;;;;;;;;;;4975162;28;20427;-49
2022/04/17 03:28:56;;;;;;;5.00;4.50;;;;;;;;;;4975053;28;20633;-48
2022/04/17 03:31:22;;;;;;;5.65;4.63;;;;;;;;;;4974658;28;20412;-49
2022/04/17 03:33:48;;;;;;;6.07;4.32;;;;;;;;;;4975070;28;20753;-48
2022/04/17 03:36:13;;;;;;;6.20;4.57;;;;;;;;;;4975275;28;20169;-48
2022/04/17 03:38:39;;;;;;;4.90;4.33;;;;;;;;;;4974913;28;20505;-48
2022/04/17 03:41:05;;;;;;;6.37;4.50;;;;;;;;;;4974863;28;20417;-48
2022/04/17 03:43:31;;;;;;;6.63;4.77;;;;;;;;;;4974553;28;20495;-49
2022/04/17 03:45:58;;;;;;;6.27;4.60;;;;;;;;;;4974803;28;20889;-48
2022/04/17 03:48:25;;;;;;;6.07;3.85;;;;;;;;;;4974767;28;20405;-48
2022/04/17 03:50:51;;;;;;;6.35;4.30;;;;;;;;;;4974957;28;20192;-49
2022/04/17 03:53:17;;;;;;;4.47;4.07;;;;;;;;;;4974393;28;20693;-48
2022/04/17 03:55:42;;;;;;;7.00;4.70;;;;;;;;;;4974658;28;20838;-49
2022/04/17 03:58:09;;;;;;;15.73;5.50;;;;;;;;;;4974628;28;20408;-49
2022/04/17 04:00:34;;;;;;;4.45;4.05;;;;;;;;;;4974823;28;20448;-49
2022/04/17 04:03:01;;;;;;;5.23;4.47;;;;;;;;;;4974178;28;20245;-48
2022/04/17 04:05:27;;;;;;;4.95;4.47;;;;;;;;;;4974479;28;20408;-48
2022/04/17 04:07:53;;;;;;;4.40;3.92;;;;;;;;;;4974741;28;20256;-48
2022/04/17 04:10:19;;;;;;;4.83;3.90;;;;;;;;;;4974802;28;20260;-48
2022/04/17 04:12:45;;;;;;;4.38;3.90;;;;;;;;;;4973856;28;20437;-48
2022/04/17 04:15:11;;;;;;;4.97;4.22;;;;;;;;;;4974252;28;20260;-48
2022/04/17 04:17:37;;;;;;;4.43;4.03;;;;;;;;;;4974206;28;20174;-49
2022/04/17 04:20:03;;;;;;;6.28;5.40;;;;;;;;;;4974153;28;20739;-49
2022/04/17 04:22:29;;;;;;;6.25;4.10;;;;;;;;;;4973852;28;20196;-48
2022/04/17 04:24:55;;;;;;;5.30;3.90;;;;;;;;;;4974112;28;20533;-49
2022/04/17 04:30:06;;;;;;;4.50;4.07;;;;;;;;;;4974053;28;20435;-48
2022/04/17 04:32:32;;;;;;;4.28;3.88;;;;;;;;;;4973218;28;20238;-48
2022/04/17 04:34:59;;;;;;;4.70;4.30;;;;;;;;;;4973948;28;20208;-48
2022/04/17 04:37:25;;;;;;;4.45;4.05;;;;;;;;;;4973852;28;20405;-48
2022/04/17 04:39:51;;;;;;;4.53;3.97;;;;;;;;;;4973704;28;20205;-49
2022/04/17 04:42:17;;;;;;;4.03;3.73;;;;;;;;;;4973321;28;20193;-48
2022/04/17 04:44:43;;;;;;;4.30;3.43;;;;;;;;;;4973745;28;20493;-48
2022/04/17 04:47:09;;;;;;;5.90;4.27;;;;;;;;;;4973671;28;20456;-49
2022/04/17 04:49:35;;;;;;;4.03;3.63;;;;;;;;;;4973648;28;20873;-49
2022/04/17 04:52:02;;;;;;;4.33;4.00;;;;;;;;;;4973326;28;20864;-48
2022/04/17 04:54:31;;;;;;;4.20;3.80;;;;;;;;;;4973561;28;20417;-49
2022/04/17 04:56:58;;;;;;;7.60;4.47;;;;;;;;;;4973477;28;20175;-48
2022/04/17 04:59:24;;;;;;;6.20;4.20;;;;;;;;;;4973429;28;20705;-48
2022/04/17 05:01:51;;;;;;;9.10;4.37;;;;;;;;;;4973073;28;20190;-49
2022/04/17 05:04:17;;;;;;;4.10;3.70;;;;;;;;;;4973412;28;20889;-48
2022/04/17 05:06:44;;;;;;;8.70;4.00;;;;;;;;;;4973495;28;20549;-48
2022/04/17 05:09:10;;;;;;;6.23;4.57;;;;;;;;;;4972109;28;20637;-48
2022/04/17 05:11:37;;;;;;;5.60;3.80;;;;;;;;;;4972758;28;20491;-48
2022/04/17 05:14:04;;;;;;;5.60;4.38;;;;;;;;;;4973316;28;20847;-48
2022/04/17 05:16:30;;;;;;;4.90;4.40;;;;;;;;;;4973237;28;20261;-48
2022/04/17 05:19:19;;;;;;;4.10;3.67;;;;;;;;;;4973514;28;20287;-49
2022/04/17 05:21:42;;;;;;;4.72;4.22;;;;;;;;;;4972723;28;20465;-49
2022/04/17 05:24:08;;;;;;;4.13;3.83;;;;;;;;;;4972484;28;20196;-48
2022/04/17 05:26:34;;;;;;;4.30;3.75;;;;;;;;;;4972565;28;20394;-48
2022/04/17 05:29:02;;;;;;;4.77;4.37;;;;;;;;;;4971234;28;20241;-49
2022/04/17 05:31:28;;;;;;;4.53;3.97;;;;;;;;;;4972175;28;20924;-48
2022/04/17 05:33:55;;;;;;;4.90;3.97;;;;;;;;;;4973113;28;20174;-49
2022/04/17 05:36:21;;;;;;;4.60;4.15;;;;;;;;;;4972727;28;20420;-48
2022/04/17 05:38:47;;;;;;;5.37;4.87;;;;;;;;;;4972942;28;20194;-49
2022/04/17 05:41:14;;;;;;;4.05;3.75;;;;;;;;;;4972815;28;20406;-48
2022/04/17 05:43:40;;;;;;;5.00;4.07;;;;;;;;;;4974523;28;20170;-49
2022/04/17 05:46:06;;;;;;;4.38;3.45;;;;;;;;;;4976999;28;20394;-48
2022/04/17 05:48:33;;;;;;;4.80;4.20;;;;;;;;;;4977003;28;20314;-49
2022/04/17 05:51:00;;;;;;;4.10;3.80;;;;;;;;;;4976828;28;20474;-48
2022/04/17 05:53:26;;;;;;;9.20;4.20;;;;;;;;;;4976549;28;20432;-49
2022/04/17 05:55:52;;;;;;;3.53;3.33;;;;;;;;;;4976939;28;20410;-48
2022/04/17 05:58:17;;;;;;;3.97;3.67;;;;;;;;;;4976803;28;20495;-49
2022/04/17 06:00:44;;;;;;;4.10;3.70;;;;;;;;;;4976548;28;20472;-49
2022/04/17 06:03:10;;;;;;;5.10;3.80;;;;;;;;;;4976389;28;20422;-49
2022/04/17 06:05:36;;;;;;;4.63;3.70;;;;;;;;;;4976596;28;20938;-49
2022/04/17 06:08:02;;;;;;;3.77;3.47;;;;;;;;;;4976827;28;20406;-49
2022/04/17 06:10:28;;;;;;;5.40;3.93;;;;;;;;;;4976539;28;20405;-48
2022/04/17 06:12:54;;;;;;;6.73;3.50;;;;;;;;;;5009490;23;20491;-48
2022/04/17 06:15:20;;;;;;;5.83;4.30;;;;;;;;;;4995656;28;20397;-48
2022/04/17 06:17:46;;;;;;;6.10;3.60;;;;;;;;;;4995931;28;20403;-48
2022/04/17 06:20:13;;;;;;;7.20;3.90;;;;;;;;;;4995104;28;20452;-48
2022/04/17 06:22:40;;;;;;;4.80;4.00;;;;;;;;;;4995368;28;20500;-48
2022/04/17 06:25:07;;;;;;;8.20;3.53;;;;;;;;;;4995803;28;20407;-48
2022/04/17 06:27:40;;;;;;;5.10;4.30;;;;;;;;;;4995933;28;20497;-48
2022/04/17 06:30:16;;;;;;;6.73;6.03;;;;;;;;;;4995768;28;20778;-48
2022/04/17 06:32:42;;;;;;;4.53;3.40;;;;;;;;;;4995231;28;20427;-48
2022/04/17 06:35:09;;;;;;;3.90;3.50;;;;;;;;;;4995583;28;20917;-48
2022/04/17 06:37:47;;;;;;;3.87;3.57;;;;;;;;;;4995598;28;20408;-48
2022/04/17 06:40:17;;;;;;;3.63;3.33;;;;;;;;;;4995417;28;20457;-48
2022/04/17 06:42:43;;;;;;;3.63;3.33;;;;;;;;;;4995155;28;20465;-49
2022/04/17 06:45:09;;;;;;;7.30;3.67;;;;;;;;;;4995365;28;20834;-49
2022/04/17 06:47:35;;;;;;;4.07;3.40;;;;;;;;;;4995398;28;20408;-48
2022/04/17 06:50:01;;;;;;;6.53;3.30;;;;;;;;;;4995321;28;20491;-48
2022/04/17 06:52:27;;;;;;;3.63;3.33;;;;;;;;;;4994976;28;20433;-48
2022/04/17 06:54:53;;;;;;;3.43;2.70;;;;;;;;;;4994835;28;20411;-48
2022/04/17 06:57:19;;;;;;;5.13;4.63;;;;;;;;;;4995218;28;20543;-48
2022/04/17 06:59:45;;;;;;;3.90;3.03;;;;;;;;;;4994918;28;20451;-48
2022/04/17 07:02:11;;;;;;;3.23;2.93;;;;;;;;;;4994901;28;20485;-48
2022/04/17 07:04:37;;;;;;;6.60;3.70;;;;;;;;;;4995182;28;20569;-48
2022/04/17 07:07:04;;;;;;;2.90;2.80;;;;;;;;;;4995029;28;20404;-48
2022/04/17 07:09:30;;;;;;;4.73;2.70;;;;;;;;;;4994936;28;20400;-48
2022/04/17 07:11:56;;;;;;;3.73;3.30;;;;;;;;;;4994464;28;20431;-48
2022/04/17 07:14:21;;;;;;;3.73;3.40;;;;;;;;;;4994848;28;20408;-48
2022/04/17 07:16:47;;;;;;;2.93;2.63;;;;;;;;;;4994802;28;20432;-48
2022/04/17 07:19:15;;;;;;;3.93;2.90;;;;;;;;;;4994662;28;20452;-48
2022/04/17 07:21:41;;;;;;;4.07;2.70;;;;;;;;;;4994375;28;20923;-49
2022/04/17 07:24:07;;;;;;;3.37;3.07;;;;;;;;;;4994642;28;20405;-48
2022/04/17 07:26:33;;;;;;;4.37;2.90;;;;;;;;;;4995100;28;20408;-48
2022/04/17 07:28:59;;;;;;;3.77;2.80;;;;;;;;;;4994492;28;20463;-49
2022/04/17 07:31:25;;;;;;;3.73;2.30;;;;;;;;;;4994443;28;20407;-49
2022/04/17 07:33:51;;;;;;;3.33;2.70;;;;;;;;;;4994683;28;20430;-49
2022/04/17 07:36:17;;;;;;;3.20;2.77;;;;;;;;;;4994507;28;20423;-50
2022/04/17 07:38:43;;;;;;;2.10;2.00;;;;;;;;;;4994671;28;20473;-50
2022/04/17 07:41:09;;;;;;;2.90;2.47;;;;;;;;;;4994375;28;20404;-50
2022/04/17 07:43:35;;;;;;;2.20;2.00;;;;;;;;;;4993960;28;20421;-50
2022/04/17 07:46:01;;;;;;;2.60;2.23;;;;;;;;;;4994200;28;20487;-50
2022/04/17 07:48:27;;;;;;;4.07;2.80;;;;;;;;;;4994276;28;20407;-50
2022/04/17 07:50:54;;;;;;;2.50;2.30;;;;;;;;;;4994151;28;20537;-50
2022/04/17 07:53:20;;;;;;;2.97;2.47;;;;;;;;;;4994109;28;20561;-49
2022/04/17 07:55:46;;;;;;;3.27;1.93;;;;;;;;;;4994547;28;20423;-50
2022/04/17 07:58:16;;;;;;;2.53;2.13;;;;;;;;;;4994023;28;20418;-50
2022/04/17 08:00:57;;;;;;;4.30;2.03;;;;;;;;;;4993915;28;20453;-50
2022/04/17 08:03:46;;;;;;;2.07;1.87;;;;;;;;;;4993700;28;20933;-50
2022/04/17 08:06:15;;;;;;;2.27;2.07;;;;;;;;;;4991982;28;20425;-50
2022/04/17 08:08:41;;;;;;;3.20;1.93;;;;;;;;;;4993760;28;20400;-50
2022/04/17 08:11:07;;;;;;;3.27;2.20;;;;;;;;;;4993793;28;20412;-50
2022/04/17 08:13:34;;;;;;;2.10;1.90;;;;;;;;;;4993415;28;20439;-50
2022/04/17 08:16:00;;;;;;;2.00;1.90;;;;;;;;;;4993708;28;20410;-50
2022/04/17 08:18:26;;;;;;;1.90;1.80;;;;;;;;;;4993684;28;20781;-50
2022/04/17 08:20:52;;;;;;;2.90;2.20;;;;;;;;;;4994713;28;20830;-50
2022/04/17 08:23:18;;;;;;;2.50;1.87;;;;;;;;;;4986732;28;20933;-49
2022/04/17 08:25:44;;;;;;;4.03;2.37;;;;;;;;;;4997637;28;20479;-50
2022/04/17 08:28:10;;;;;;;4.30;1.97;;;;;;;;;;4997468;28;20404;-50
2022/04/17 08:30:40;;;;;;;1.97;1.77;;;;;;;;;;4997462;28;20446;-50
2022/04/17 08:33:07;;;;;;;1.77;1.67;;;;;;;;;;4996176;28;20459;-50
2022/04/17 08:35:33;;;;;;;1.97;1.77;;;;;;;;;;4997080;28;20396;-52
2022/04/17 08:38:03;;;;;;;2.47;2.27;;;;;;;;;;4996388;28;20941;-52
2022/04/17 08:40:29;;;;;;;3.07;2.00;;;;;;;;;;4998456;28;20789;-51
2022/04/17 08:42:56;;;;;;;2.47;1.90;;;;;;;;;;4996368;28;20432;-50
2022/04/17 08:45:22;;;;;;;2.40;2.00;;;;;;;;;;4997431;28;20891;-51
2022/04/17 08:47:48;;;;;;;3.63;1.90;;;;;;;;;;4997466;28;20456;-50
2022/04/17 08:50:18;;;;;;;4.30;1.90;;;;;;;;;;4995439;28;20424;-50
2022/04/17 08:52:45;;;;;;;1.70;1.60;;;;;;;;;;4998795;28;20456;-50
2022/04/17 08:55:12;;;;;;;3.40;1.60;;;;;;;;;;4998861;28;20411;-50
2022/04/17 08:57:38;;;;;;;4.20;2.03;;;;;;;;;;4998549;28;20408;-50
2022/04/17 09:00:07;;;;;;;2.10;1.87;;;;;;;;;;4997006;28;20829;-50
2022/04/17 09:02:33;;;;;;;1.87;1.57;;;;;;;;;;4997581;28;20428;-51
2022/04/17 09:04:59;;;;;;;1.60;1.50;;;;;;;;;;4998687;28;20435;-52
2022/04/17 09:07:38;;;;;;;1.80;1.67;;;;;;;;;;4998998;28;20400;-52
2022/04/17 09:10:04;;;;;;;2.57;2.27;;;;;;;;;;4998310;28;20762;-51
2022/04/17 09:12:30;;;;;;;1.80;1.70;;;;;;;;;;4997803;28;21034;-51
2022/04/17 09:14:57;;;;;;;2.00;1.90;;;;;;;;;;4998198;28;20443;-52
2022/04/17 09:17:33;;;;;;;1.80;1.47;;;;;;;;;;4998653;28;20408;-52
2022/04/17 09:19:59;;;;;;;2.30;1.90;;;;;;;;;;4998755;28;20809;-50
2022/04/17 09:22:26;;;;;;;2.47;1.90;;;;;;;;;;4997840;28;20945;-50
2022/04/17 09:24:52;;;;;;;2.73;1.70;;;;;;;;;;4999266;28;20479;-51
2022/04/17 09:27:18;;;;;;;2.00;1.63;;;;;;;;;;4998841;28;20411;-51
2022/04/17 09:29:44;;;;;;;2.97;1.90;;;;;;;;;;4997784;28;20488;-51
2022/04/17 09:32:11;;;;;;;1.93;1.77;;;;;;;;;;4997687;28;20482;-51
2022/04/17 09:34:50;;;;;;;3.53;1.90;;;;;;;;;;4998858;28;20404;-51
2022/04/17 09:37:17;;;;;;;3.07;1.80;;;;;;;;;;4999351;28;20400;-52
2022/04/17 09:39:44;;;;;;;4.77;2.10;;;;;;;;;;4998124;28;20514;-51
2022/04/17 09:42:10;;;;;;;2.07;1.90;;;;;;;;;;4998536;28;20431;-51
2022/04/17 09:44:47;;;;;;;2.90;2.10;;;;;;;;;;4998365;28;20432;-53
2022/04/17 09:47:16;;;;;;;4.30;2.10;;;;;;;;;;4997351;28;20407;-51
2022/04/17 09:49:56;;;;;;;2.63;1.73;;;;;;;;;;4996603;28;20400;-50
2022/04/17 09:52:24;;;;;;;2.40;1.80;;;;;;;;;;4997566;28;20943;-51
2022/04/17 09:54:50;;;;;;;2.07;1.57;;;;;;;;;;4997792;28;20471;-52
2022/04/17 09:57:20;;;;;;;2.17;2.00;;;;;;;;;;4998357;28;20408;-51
2022/04/17 09:59:47;;;;;;;2.30;2.00;;;;;;;;;;4997733;28;20459;-52
2022/04/17 10:02:15;;;;;;;1.97;1.87;;;;;;;;;;4996853;28;20436;-52
2022/04/17 10:04:45;;;;;;;2.93;2.33;;;;;;;;;;4997835;28;20490;-51
2022/04/17 10:07:11;;;;;;;2.13;1.93;;;;;;;;;;4998221;28;20407;-51
2022/04/17 10:09:38;;;;;;;2.60;1.50;;;;;;;;;;4998654;28;20412;-52
2022/04/17 10:12:05;;;;;;;1.57;1.47;;;;;;;;;;4998882;28;20439;-52
2022/04/17 10:14:32;;;;;;;2.40;1.80;;;;;;;;;;4998647;28;20507;-52
2022/04/17 10:16:58;;;;;;;3.00;1.77;;;;;;;;;;4998887;28;20926;-51
2022/04/17 10:19:27;;;;;;;3.10;1.40;;;;;;;;;;4999182;28;20510;-50
2022/04/17 10:21:53;;;;;;;1.40;1.27;;;;;;;;;;4997378;28;20496;-53
2022/04/17 10:24:21;;;;;;;1.40;1.20;;;;;;;;;;4998271;28;20415;-52
2022/04/17 10:26:51;;;;;;;2.97;1.70;;;;;;;;;;4998030;28;20947;-51
2022/04/17 10:29:22;;;;;;;1.70;1.60;;;;;;;;;;4998143;28;20422;-50
2022/04/17 10:31:48;;;;;;;1.67;1.57;;;;;;;;;;5000120;28;20424;-51
2022/04/17 10:34:26;;;;;;;1.73;1.63;;;;;;;;;;5001160;28;20965;-52
2022/04/17 10:37:30;;;;;;;4.40;1.70;;;;;;;;;;5000373;28;20258;-52
2022/04/17 10:39:57;;;;;;;2.73;2.00;;;;;;;;;;4939880;29;20546;-51
2022/04/17 10:42:33;;;;;;;2.37;1.40;;;;;;;;;;4938868;29;20801;-50
2022/04/17 10:45:02;;;;;;;1.53;1.27;;;;;;;;;;4971926;28;20870;-50
2022/04/17 10:47:29;;;;;;;2.33;1.40;;;;;;;;;;4999739;28;20885;-51
2022/04/17 10:50:00;;;;;;;1.50;1.40;;;;;;;;;;4999846;28;20404;-50
2022/04/17 10:52:33;;;;;;;2.97;1.30;;;;;;;;;;4998425;28;21042;-51
2022/04/17 10:55:10;;;;;;;1.40;1.30;;;;;;;;;;4998982;28;20470;-50
2022/04/17 10:57:43;;;;;;;1.60;1.50;;;;;;;;;;4999186;28;20915;-51
2022/04/17 11:00:28;;;;;;;1.53;1.43;;;;;;;;;;4998790;28;20974;-52
2022/04/17 11:02:54;;;;;;;1.83;1.30;;;;;;;;;;4999560;28;20430;-50
2022/04/17 11:08:24;;;;;;;1.50;1.40;;;;;;;;;;4999304;28;20805;-51
2022/04/17 11:10:57;;;;;;;1.77;1.60;;;;;;;;;;4998794;28;20408;-52
2022/04/17 11:13:26;;;;;;;1.77;1.67;;;;;;;;;;4996929;28;20447;-50
2022/04/17 11:15:54;;;;;;;1.50;1.40;;;;;;;;;;4997816;28;20474;-51
2022/04/17 11:18:24;;;;;;;2.00;1.40;;;;;;;;;;4998596;28;20443;-51
2022/04/17 11:20:53;;;;;;;2.50;1.77;;;;;;;;;;4998154;28;20452;-52
2022/04/17 11:23:38;;;;;;;1.50;1.40;;;;;;;;;;4999003;28;20428;-51
2022/04/17 11:26:04;;;;;;;1.70;1.60;;;;;;;;;;4999203;28;20458;-51
2022/04/17 11:28:35;;;;;;;3.30;1.70;;;;;;;;;;4998655;28;20404;-52
2022/04/17 11:31:01;;;;;;;2.70;1.50;;;;;;;;;;5000911;28;20825;-50
2022/04/17 11:33:27;;;;;;;1.53;1.40;;;;;;;;;;4999955;28;20424;-51
2022/04/17 11:35:54;;;;;;;2.17;1.80;;;;;;;;;;4999451;28;20455;-52
2022/04/17 11:38:20;;;;;;;1.50;1.40;;;;;;;;;;4999840;28;20396;-52
2022/04/17 11:40:47;;;;;;;1.23;1.13;;;;;;;;;;4998361;28;20443;-51
2022/04/17 11:43:15;;;;;;;2.40;1.70;;;;;;;;;;4999290;28;20452;-50
2022/04/17 11:45:42;;;;;;;2.43;2.00;;;;;;;;;;4999627;28;20400;-51
2022/04/17 11:48:09;;;;;;;1.93;1.40;;;;;;;;;;4999941;28;20412;-51
2022/04/17 11:50:35;;;;;;;1.50;1.40;;;;;;;;;;5001262;28;20407;-50
2022/04/17 11:53:03;;;;;;;2.40;1.50;;;;;;;;;;4999034;28;20451;-52
2022/04/17 11:55:30;;;;;;;3.00;1.93;;;;;;;;;;5001496;28;20396;-52
2022/04/17 11:57:57;;;;;;;1.63;1.50;;;;;;;;;;4998882;28;20412;-51
2022/04/17 12:00:23;;;;;;;1.63;1.53;;;;;;;;;;5000685;28;20456;-53
2022/04/17 12:02:54;;;;;;;1.97;1.70;;;;;;;;;;4999845;28;20431;-52
2022/04/17 12:05:20;;;;;;;2.53;1.70;;;;;;;;;;5000064;28;20471;-50
2022/04/17 12:07:55;;;;;;;6.53;1.57;;;;;;;;;;4999693;28;20441;-51
2022/04/17 12:10:22;;;;;;;1.50;1.40;;;;;;;;;;5000440;28;20418;-52
2022/04/17 12:12:48;;;;;;;1.50;1.40;;;;;;;;;;4998046;28;20455;-50
2022/04/17 12:15:15;;;;;;;1.50;1.40;;;;;;;;;;4993919;28;20785;-51
2022/04/17 12:17:42;;;;;;;1.40;1.20;;;;;;;;;;4993786;28;20419;-51
2022/04/17 12:20:09;;;;;;;2.00;1.50;;;;;;;;;;4993401;28;20456;-51
2022/04/17 12:22:36;;;;;;;1.47;1.37;;;;;;;;;;4993289;28;20494;-50
2022/04/17 12:25:02;;;;;;;3.70;1.93;;;;;;;;;;4993586;28;20396;-51
2022/04/17 12:27:28;;;;;;;3.17;1.63;;;;;;;;;;4993601;28;20412;-51
2022/04/17 12:29:56;;;;;;;2.30;1.80;;;;;;;;;;4998260;28;20517;-51
2022/04/17 12:32:23;;;;;;;2.30;1.87;;;;;;;;;;4992981;28;20443;-51
2022/04/17 12:34:59;;;;;;;2.90;1.90;;;;;;;;;;4991814;28;20404;-51
2022/04/17 12:37:28;;;;;;;3.87;2.10;;;;;;;;;;4991610;28;20486;-51
2022/04/17 12:40:14;;;;;;;4.30;1.97;;;;;;;;;;4992783;28;20487;-51
2022/04/17 12:42:40;;;;;;;3.80;3.00;;;;;;;;;;4991941;28;20904;-51
2022/04/17 12:45:08;;;;;;;2.70;2.50;;;;;;;;;;4992981;28;20466;-51
2022/04/17 12:47:36;;;;;;;2.90;2.70;;;;;;;;;;4993315;28;20414;-51
2022/04/17 12:50:03;;;;;;;3.17;2.87;;;;;;;;;;4993222;28;20535;-50
2022/04/17 12:52:29;;;;;;;3.13;2.70;;;;;;;;;;4992401;28;20431;-51
2022/04/17 12:54:56;;;;;;;3.13;2.93;;;;;;;;;;4993299;28;20408;-50
2022/04/17 12:57:23;;;;;;;4.00;2.40;;;;;;;;;;4992146;28;20962;-50
2022/04/17 12:59:50;;;;;;;3.17;2.40;;;;;;;;;;4992652;28;20456;-51
2022/04/17 13:02:22;;;;;;;3.67;3.07;;;;;;;;;;4992028;28;20420;-50
2022/04/17 13:04:48;;;;;;;4.70;2.70;;;;;;;;;;4992849;28;20467;-51
2022/04/17 13:07:15;;;;;;;4.33;2.70;;;;;;;;;;4993215;28;20423;-51
2022/04/17 13:09:55;;;;;;;4.77;3.10;;;;;;;;;;4993264;28;20821;-51
2022/04/17 13:12:34;;;;;;;3.00;2.73;;;;;;;;;;4991903;28;20538;-51
2022/04/17 13:15:01;;;;;;;3.33;3.13;;;;;;;;;;4992743;28;20443;-51
2022/04/17 13:17:27;;;;;;;4.30;3.50;;;;;;;;;;4992355;28;20407;-50
2022/04/17 13:19:53;;;;;;;4.40;3.00;;;;;;;;;;4989717;28;20459;-50
2022/04/17 13:22:19;;;;;;;3.93;3.53;;;;;;;;;;4989401;28;20458;-50
2022/04/17 13:24:45;;;;;;;3.20;3.00;;;;;;;;;;4992458;28;20876;-50
2022/04/17 13:27:12;;;;;;;3.03;2.83;;;;;;;;;;4989950;28;20428;-50
2022/04/17 13:29:38;;;;;;;10.47;4.20;;;;;;;;;;4991090;28;20415;-51
2022/04/17 13:32:04;;;;;;;10.27;3.40;;;;;;;;;;4989978;28;20547;-50
2022/04/17 13:34:33;;;;;;;3.57;3.27;;;;;;;;;;4991581;28;20462;-51
2022/04/17 13:39:44;;;;;;;3.70;3.27;;;;;;;;;;4991453;28;20465;-51
2022/04/17 13:42:10;;;;;;;6.70;5.83;;;;;;;;;;4991568;28;20787;-51
2022/04/17 13:44:40;;;;;;;4.03;3.73;;;;;;;;;;4991522;28;20410;-51
2022/04/17 13:47:06;;;;;;;4.10;3.70;;;;;;;;;;4992210;28;20860;-51
2022/04/17 13:49:32;;;;;;;3.17;2.97;;;;;;;;;;4991866;28;20407;-51
2022/04/17 13:52:01;;;;;;;3.03;2.80;;;;;;;;;;4990622;28;20451;-51
2022/04/17 13:54:27;;;;;;;7.27;6.20;;;;;;;;;;4991301;28;20714;-51
2022/04/17 13:56:53;;;;;;;3.70;3.00;;;;;;;;;;4992256;28;20412;-51
2022/04/17 13:59:19;;;;;;;4.33;3.00;;;;;;;;;;4989580;28;20467;-51
2022/04/17 14:01:45;;;;;;;4.70;2.70;;;;;;;;;;4973993;28;20447;-51
2022/04/17 14:04:11;;;;;;;5.53;3.07;;;;;;;;;;4993209;28;20486;-51
2022/04/17 14:06:38;;;;;;;3.33;3.00;;;;;;;;;;4995542;28;20491;-51
2022/04/17 14:09:04;;;;;;;2.80;2.60;;;;;;;;;;4993337;28;20431;-51
2022/04/17 14:11:30;;;;;;;2.80;2.57;;;;;;;;;;4994959;28;20404;-50
2022/04/17 14:13:59;;;;;;;3.20;2.90;;;;;;;;;;4993878;28;20997;-51
2022/04/17 14:16:25;;;;;;;2.60;2.40;;;;;;;;;;4989607;28;20424;-50
2022/04/17 14:18:51;;;;;;;2.80;2.30;;;;;;;;;;4994636;28;20416;-50
2022/04/17 14:21:17;;;;;;;3.50;2.23;;;;;;;;;;4994899;28;20442;-50
2022/04/17 14:23:43;;;;;;;2.83;2.63;;;;;;;;;;4994024;28;20336;-51
2022/04/17 14:26:09;;;;;;;2.90;2.70;;;;;;;;;;4995585;28;20407;-51
2022/04/17 14:28:35;;;;;;;4.93;2.87;;;;;;;;;;4994911;28;20943;-50
2022/04/17 14:31:03;;;;;;;4.10;2.50;;;;;;;;;;4994293;28;20939;-50
2022/04/17 14:33:29;;;;;;;3.30;2.83;;;;;;;;;;4992076;28;20672;-51
2022/04/17 14:35:57;;;;;;;3.10;2.77;;;;;;;;;;4995022;28;20839;-51
2022/04/17 14:38:26;;;;;;;2.30;2.10;;;;;;;;;;4990681;28;20482;-50
2022/04/17 14:40:52;;;;;;;6.87;6.17;;;;;;;;;;4995234;28;20451;-51
2022/04/17 14:43:19;;;;;;;32.10;27.63;;;;;;;;;;4992650;28;20470;-51
2022/04/17 14:45:48;;;;;;;2.70;2.50;;;;;;;;;;4993350;28;20926;-51
2022/04/17 14:48:14;;;;;;;3.27;2.90;;;;;;;;;;4994411;28;20424;-51
2022/04/17 14:50:41;;;;;;;2.60;2.40;;;;;;;;;;4994461;28;20419;-51
2022/04/17 14:53:07;;;;;;;2.43;2.20;;;;;;;;;;4994058;28;20486;-51
2022/04/17 14:55:34;;;;;;;2.30;2.03;;;;;;;;;;4995211;28;20407;-51
2022/04/17 14:58:00;;;;;;;2.37;2.17;;;;;;;;;;4993579;28;20478;-51
2022/04/17 15:00:26;;;;;;;3.20;2.90;;;;;;;;;;4994955;28;20521;-51
2022/04/17 15:02:52;;;;;;;4.10;3.30;;;;;;;;;;4992107;28;20456;-51
2022/04/17 15:05:18;;;;;;;2.60;2.40;;;;;;;;;;4992891;28;20432;-51